Terminal Aerodrome Forecast
Issued by NWS

Home | Current Version | Previous Version | Text Only | Print | Product List | Glossary On
Versions: 1 2 3 4 5 6 7 8 9 10 11 12 13 14 15 16 17
349
FTUS43 KGRB 240525
TAFMTW
TAF
KMTW 240525Z 2406/2506 29007KT P6SM VCSH SCT035 BKN080
      TEMPO 2406/2408 5SM -RA BR BKN035
     FM240800 32010KT 6SM -RA SCT025 BKN040
     FM241100 33012G20KT 4SM -RA BR SCT018 OVC025
      TEMPO 2411/2415 2SM RA BR OVC018
     FM241500 30020G32KT 6SM -SHRA BR OVC025
     FM241800 31022G35KT P6SM SCT022 OVC035
      TEMPO 2418/2422 5SM -SHRA BR BKN022
     FM242200 30015G23KT P6SM SCT030 BKN070=

USA.gov is the U.S. government's official web portal to all federal, state and local government web resources and services.